createdAt,value
2019-03-04T00:03:00.058Z,96101.09
2019-03-04T00:07:54.655Z,96098.37
2019-03-04T00:12:49.266Z,96093.55
2019-03-04T00:17:44.782Z,96082.58
2019-03-04T00:22:39.437Z,96080.77
2019-03-04T00:27:34.035Z,96087.32
2019-03-04T00:32:28.600Z,96080.44
2019-03-04T00:37:23.873Z,96076.95
2019-03-04T00:42:18.439Z,96071.66
2019-03-04T00:47:13.032Z,96061.67
2019-03-04T00:52:07.616Z,96064.61
2019-03-04T00:57:02.207Z,96046.66
2019-03-04T01:01:56.793Z,96047.67
2019-03-04T01:06:51.475Z,96042.33
2019-03-04T01:11:46.060Z,96041.33
2019-03-04T01:16:40.674Z,96037.28
2019-03-04T01:21:35.269Z,96026.43
2019-03-04T01:26:29.843Z,96014.41
2019-03-04T01:31:24.424Z,96003.27
2019-03-04T01:36:19.006Z,95986.61
2019-03-04T01:41:13.588Z,95987.14
2019-03-04T01:46:08.173Z,95971.60
2019-03-04T01:51:02.743Z,95972.91
2019-03-04T01:55:57.322Z,95969.66
2019-03-04T02:00:51.930Z,95947.14
2019-03-04T02:05:46.580Z,95948.50
2019-03-04T02:10:41.188Z,95932.33
2019-03-04T02:15:35.829Z,95927.64
2019-03-04T02:20:30.496Z,95914.56
2019-03-04T02:25:47.271Z,95899.23
2019-03-04T02:30:41.912Z,95870.69
2019-03-04T02:35:36.629Z,95865.17
2019-03-04T02:40:31.197Z,95849.36
2019-03-04T02:45:25.781Z,95846.75
2019-03-04T02:50:20.351Z,95817.17
2019-03-04T02:55:17.641Z,95829.56
2019-03-04T03:00:19.111Z,95827.43
2019-03-04T03:05:14.424Z,95813.55
2019-03-04T03:10:16.827Z,95845.11
2019-03-04T03:15:17.798Z,95843.38
2019-03-04T03:20:14.172Z,95812.70
2019-03-04T03:25:11.841Z,95796.66
2019-03-04T03:30:13.614Z,95786.37
2019-03-04T03:35:10.486Z,95786.06
2019-03-04T03:40:09.980Z,95784.55
2019-03-04T03:45:07.856Z,95783.20
2019-03-04T03:50:02.513Z,95741.14
2019-03-04T03:54:57.084Z,95751.80
2019-03-04T03:59:51.665Z,95720.02
2019-03-04T04:04:46.331Z,95737.95
2019-03-04T04:09:40.904Z,95725.28
2019-03-04T04:14:35.487Z,95715.13
2019-03-04T04:19:30.076Z,95694.57
2019-03-04T04:24:24.659Z,95702.09
2019-03-04T04:29:19.298Z,95687.05
2019-03-04T04:34:14.131Z,95670.81
2019-03-04T04:39:08.783Z,95655.84
2019-03-04T04:44:03.449Z,95641.29
2019-03-04T04:48:58.032Z,95634.73
2019-03-04T04:53:52.605Z,95625.00
2019-03-04T04:58:47.188Z,95613.48
2019-03-04T05:03:41.775Z,95611.13
2019-03-04T05:08:36.338Z,95599.62
2019-03-04T05:13:30.937Z,95594.42
2019-03-04T05:18:25.534Z,95587.31
2019-03-04T05:23:20.099Z,95545.01
2019-03-04T05:28:14.682Z,95528.81
2019-03-04T05:33:09.251Z,95525.17
2019-03-04T05:38:03.834Z,95506.91
2019-03-04T05:42:58.404Z,95495.50
2019-03-04T05:47:53.023Z,95474.98
2019-03-04T05:52:47.602Z,95471.25
2019-03-04T05:57:42.188Z,95468.65
2019-03-04T06:02:36.756Z,95483.98
2019-03-04T06:07:32.994Z,95476.63
2019-03-04T06:12:27.595Z,95467.00
2019-03-04T06:17:22.178Z,95453.84
2019-03-04T06:22:16.740Z,95454.88
2019-03-04T06:27:11.348Z,95435.50
2019-03-04T06:32:05.923Z,95434.95
2019-03-04T06:37:00.507Z,95431.78
2019-03-04T06:41:55.071Z,95458.72
2019-03-04T06:46:50.352Z,95438.91
2019-03-04T06:51:45.174Z,95429.72
2019-03-04T06:56:59.092Z,95425.80
2019-03-04T07:02:16.027Z,95415.16
2019-03-04T07:07:10.602Z,95401.64
2019-03-04T07:12:05.314Z,95383.06
2019-03-04T07:16:59.896Z,95385.75
2019-03-04T07:21:54.618Z,95421.78
2019-03-04T07:26:49.277Z,95466.11
2019-03-04T07:31:44.925Z,95488.78
2019-03-04T07:36:39.583Z,95516.66
2019-03-04T07:41:34.324Z,95528.55
2019-03-04T07:46:29.367Z,95512.80
2019-03-04T07:51:24.237Z,95509.84
2019-03-04T07:56:18.958Z,95508.62
2019-03-04T08:01:14.097Z,95525.34
2019-03-04T08:06:10.548Z,95541.51
2019-03-04T08:11:37.147Z,95535.22
2019-03-04T08:16:32.372Z,95525.50
2019-03-04T08:21:28.190Z,95543.00
2019-03-04T08:26:22.786Z,95545.38
2019-03-04T08:31:17.381Z,95527.79
2019-03-04T08:36:12.038Z,95546.31
2019-03-04T08:41:06.841Z,95541.63
2019-03-04T08:46:01.529Z,95567.37
2019-03-04T08:50:56.135Z,95590.86
2019-03-04T08:55:50.800Z,95591.46
2019-03-04T09:00:45.439Z,95587.31
2019-03-04T09:05:42.770Z,95586.42
2019-03-04T09:10:38.784Z,95578.84
2019-03-04T09:15:33.517Z,95604.42
2019-03-04T09:20:28.282Z,95606.49
2019-03-04T09:25:36.034Z,95636.22
2019-03-04T09:30:30.955Z,95682.84
2019-03-04T09:35:25.661Z,95687.09
2019-03-04T09:40:23.098Z,95711.80
2019-03-04T09:45:18.496Z,95686.23
2019-03-04T09:50:25.763Z,95734.31
2019-03-04T09:55:21.924Z,95760.11
2019-03-04T10:00:42.904Z,95761.77
2019-03-04T10:06:14.502Z,95808.22
2019-03-04T10:11:34.714Z,95821.09
2019-03-04T10:16:33.964Z,95834.30
2019-03-04T10:21:44.536Z,95851.70
2019-03-04T10:27:25.038Z,95893.92
2019-03-04T10:32:36.135Z,95899.20
2019-03-04T10:37:41.293Z,95894.48
2019-03-04T10:43:16.853Z,95922.94
2019-03-04T10:48:11.437Z,95925.34
2019-03-04T10:53:06.587Z,95926.23
2019-03-04T10:58:01.211Z,95916.52
2019-03-04T11:02:55.872Z,95912.65
2019-03-04T11:07:50.532Z,95912.84
2019-03-04T11:12:45.173Z,95889.71
2019-03-04T11:17:39.768Z,95897.88
2019-03-04T11:22:34.347Z,95884.22
2019-03-04T11:27:29.068Z,95860.95
2019-03-04T11:32:23.643Z,95852.25
2019-03-04T11:37:18.251Z,95875.74
2019-03-04T11:42:12.904Z,95857.74
2019-03-04T11:47:07.482Z,95842.00
2019-03-04T11:52:02.094Z,95809.14
2019-03-04T11:56:56.709Z,95817.16
2019-03-04T12:01:51.422Z,95790.44
2019-03-04T12:06:46.154Z,95826.77
2019-03-04T12:11:40.730Z,95841.89
2019-03-04T12:16:35.866Z,95851.89
2019-03-04T12:21:30.688Z,95824.86
2019-03-04T12:26:25.269Z,95822.05
2019-03-04T12:31:20.102Z,95834.22
2019-03-04T12:36:14.664Z,95815.66
2019-03-04T12:41:09.448Z,95805.94
2019-03-04T12:46:04.028Z,95811.32
2019-03-04T12:50:59.491Z,95807.11
2019-03-04T12:55:54.080Z,95831.82
2019-03-04T13:00:48.887Z,95826.17
2019-03-04T13:05:53.782Z,95815.08
2019-03-04T13:11:05.906Z,95796.23
2019-03-04T13:16:14.918Z,95784.47
2019-03-04T13:21:21.820Z,95788.89
2019-03-04T13:26:16.413Z,95801.08
2019-03-04T13:31:11.438Z,95798.95
2019-03-04T13:36:08.183Z,95773.27
2019-03-04T13:41:14.438Z,95796.27
2019-03-04T13:46:20.784Z,95786.96
2019-03-04T13:51:26.967Z,95769.28
2019-03-04T13:56:21.547Z,95774.42
2019-03-04T14:01:16.363Z,95776.70
2019-03-04T14:06:10.962Z,95774.39
2019-03-04T14:11:06.278Z,95775.56
2019-03-04T14:16:00.952Z,95771.63
2019-03-04T14:20:55.540Z,95750.91
2019-03-04T14:25:53.710Z,95754.19
2019-03-04T14:30:48.303Z,95745.08
2019-03-04T14:35:42.974Z,95724.56
2019-03-04T14:40:37.625Z,95721.27
2019-03-04T14:45:32.285Z,95724.23
2019-03-04T14:50:28.528Z,95734.58
2019-03-04T14:55:30.100Z,95719.14
2019-03-04T15:00:31.935Z,95728.62
2019-03-04T15:05:27.024Z,95741.59
2019-03-04T15:10:21.912Z,95755.68
2019-03-04T15:15:26.387Z,95760.81
2019-03-04T15:20:24.487Z,95759.78
2019-03-04T15:25:30.589Z,95744.50
2019-03-04T15:30:25.441Z,95755.42
2019-03-04T15:35:31.903Z,95739.30
2019-03-04T15:40:29.004Z,95730.25
2019-03-04T15:45:24.056Z,95717.86
2019-03-04T15:50:18.926Z,95722.80
2019-03-04T15:55:14.111Z,95711.64
2019-03-04T16:00:15.815Z,95714.28
2019-03-04T16:05:15.030Z,95704.98
2019-03-04T16:10:24.250Z,95733.02
2019-03-04T16:15:21.633Z,95749.53
2019-03-04T16:20:19.440Z,95751.21
2019-03-04T16:25:24.677Z,95744.12
2019-03-04T16:30:24.584Z,95758.09
2019-03-04T16:35:20.146Z,95758.86
2019-03-04T16:40:23.590Z,95765.39
2019-03-04T16:45:20.788Z,95773.18
2019-03-04T16:50:24.531Z,95794.33
2019-03-04T16:55:19.183Z,95791.22
2019-03-04T17:00:21.898Z,95814.37
2019-03-04T17:05:19.070Z,95801.77
2019-03-04T17:10:17.511Z,95833.84
2019-03-04T17:15:16.950Z,95862.71
2019-03-04T17:20:14.971Z,95884.27
2019-03-04T17:25:19.360Z,95883.25
2019-03-04T17:30:20.069Z,95907.92
2019-03-04T17:35:18.756Z,95925.98
2019-03-04T17:40:17.524Z,95941.56
2019-03-04T17:45:16.360Z,95940.05
2019-03-04T17:50:33.135Z,95936.43
2019-03-04T17:55:27.769Z,95964.73
2019-03-04T18:00:22.561Z,95975.57
2019-03-04T18:05:18.157Z,95995.80
2019-03-04T18:10:18.736Z,96002.33
2019-03-04T18:15:20.266Z,96026.35
2019-03-04T18:20:16.341Z,96039.61
2019-03-04T18:25:21.057Z,96051.33
2019-03-04T18:30:39.863Z,96069.91
2019-03-04T18:36:01.184Z,96081.48
2019-03-04T18:41:26.054Z,96089.86
2019-03-04T18:46:48.886Z,96124.16
2019-03-04T18:51:43.522Z,96117.61
2019-03-04T18:56:38.164Z,96102.54
2019-03-04T19:01:32.873Z,96088.98
2019-03-04T19:06:27.560Z,96095.95
2019-03-04T19:11:23.751Z,96104.77
2019-03-04T19:16:18.677Z,96104.66
2019-03-04T19:21:13.243Z,96112.11
2019-03-04T19:26:07.967Z,96101.46
2019-03-04T19:31:02.697Z,96106.14
2019-03-04T19:35:57.286Z,96110.33
2019-03-04T19:40:51.880Z,96111.90
2019-03-04T19:45:46.713Z,96106.31
2019-03-04T19:50:41.355Z,96110.58
2019-03-04T19:55:36.809Z,96111.59
2019-03-04T20:00:33.163Z,96094.97
2019-03-04T20:05:30.758Z,96110.69
2019-03-04T20:10:25.510Z,96119.94
2019-03-04T20:15:26.385Z,96132.23
2019-03-04T20:20:21.269Z,96127.38
2019-03-04T20:25:17.866Z,96135.08
2019-03-04T20:30:15.927Z,96130.80
2019-03-04T20:35:17.372Z,96148.48
2019-03-04T20:40:12.918Z,96161.95
2019-03-04T20:45:15.650Z,96157.67
2019-03-04T20:50:17.772Z,96182.08
2019-03-04T20:55:14.073Z,96189.48
2019-03-04T21:00:26.637Z,96195.98
2019-03-04T21:05:21.388Z,96227.87
2019-03-04T21:10:17.284Z,96306.53
2019-03-04T21:15:14.539Z,96345.73
2019-03-04T21:20:19.823Z,96397.01
2019-03-04T21:25:48.801Z,96397.13
2019-03-04T21:30:59.549Z,96379.04
2019-03-04T21:36:03.824Z,96379.55
2019-03-04T21:41:20.903Z,96376.05
2019-03-04T21:46:51.509Z,96375.53
2019-03-04T21:51:59.687Z,96380.13
2019-03-04T21:57:23.243Z,96376.76
2019-03-04T22:02:46.308Z,96367.53
2019-03-04T22:07:41.417Z,96370.45
2019-03-04T22:12:36.098Z,96368.43
2019-03-04T22:17:30.654Z,96384.82
2019-03-04T22:22:25.248Z,96382.43
2019-03-04T22:27:19.885Z,96386.13
2019-03-04T22:32:14.493Z,96404.92
2019-03-04T22:37:09.128Z,96425.54
2019-03-04T22:42:03.807Z,96420.03
2019-03-04T22:46:58.403Z,96417.52
2019-03-04T22:51:53.007Z,96420.23
2019-03-04T22:56:47.599Z,96423.59
2019-03-04T23:01:47.311Z,96419.80
2019-03-04T23:07:04.954Z,96419.91
2019-03-04T23:12:15.986Z,96422.78
2019-03-04T23:17:10.636Z,96423.59
2019-03-04T23:22:05.289Z,96419.03
2019-03-04T23:27:00.028Z,96424.81
2019-03-04T23:31:54.692Z,96421.51
2019-03-04T23:36:49.278Z,96404.11
2019-03-04T23:41:43.869Z,96396.98
2019-03-04T23:46:38.515Z,96396.02
2019-03-04T23:51:33.106Z,96383.31
2019-03-04T23:56:27.704Z,96400.38
